Time;durP1;ratioP1;P1;durP2;ratioP2;P2;SDS_P1;SDS_P2;PMS_P1;PMS_P2;Temp;Humidity;BMP_temperature;BMP_pressure;BME280_temperature;BME280_humidity;BME280_pressure;Samples;Min_cycle;Max_cycle;Signal;HPM_P1;HPM_P2
2022/12/30 00:01:29;;;;;;;1.07;0.63;;;7.20;99.90;;;;;;5056185;28;20202;-88
2022/12/30 00:03:55;;;;;;;0.57;0.40;;;7.30;99.90;;;;;;5039424;28;20189;-88
2022/12/30 00:06:23;;;;;;;0.40;0.40;;;7.20;99.90;;;;;;5038910;28;20185;-89
2022/12/30 00:08:51;;;;;;;0.50;0.50;;;7.20;99.90;;;;;;5054845;28;20187;-88
2022/12/30 00:11:25;;;;;;;0.53;0.53;;;7.20;99.90;;;;;;5063108;28;20643;-88
2022/12/30 00:34:16;;;;;;;1.83;1.20;;;7.20;99.90;;;;;;5060560;28;20174;-88
2022/12/30 00:36:42;;;;;;;1.90;1.40;;;7.20;99.90;;;;;;5046389;28;20173;-88
2022/12/30 00:39:08;;;;;;;1.10;1.00;;;7.20;99.90;;;;;;5065810;28;20743;-88
2022/12/30 00:44:18;;;;;;;0.97;0.60;;;7.30;99.90;;;;;;5059215;28;20192;-88
2022/12/30 00:46:45;;;;;;;0.63;0.50;;;7.20;99.90;;;;;;5043048;28;20177;-88
2022/12/30 00:57:25;;;;;;;1.43;0.50;;;7.20;99.90;;;;;;5059012;28;20205;-88
2022/12/30 00:59:51;;;;;;;1.43;0.93;;;7.20;99.90;;;;;;5042798;28;20572;-88
2022/12/30 01:02:17;;;;;;;1.13;0.60;;;7.20;99.90;;;;;;5059461;28;20291;-88
2022/12/30 01:04:42;;;;;;;0.97;0.60;;;7.20;99.90;;;;;;5042916;28;20212;-88
2022/12/30 01:07:08;;;;;;;0.80;0.50;;;7.20;99.90;;;;;;5065738;28;20274;-88
2022/12/30 01:09:35;;;;;;;1.07;0.63;;;7.20;99.90;;;;;;5061836;28;20181;-88
2022/12/30 01:12:07;;;;;;;2.20;0.60;;;7.20;99.90;;;;;;5067606;28;20228;-88
2022/12/30 01:14:39;;;;;;;2.13;0.73;;;7.20;99.90;;;;;;5058406;28;20163;-88
2022/12/30 01:17:07;;;;;;;0.53;0.50;;;7.20;99.90;;;;;;5042118;28;20189;-88
2022/12/30 01:19:33;;;;;;;0.50;0.50;;;7.10;99.90;;;;;;5058033;28;20206;-88
2022/12/30 01:21:59;;;;;;;0.73;0.50;;;7.10;99.90;;;;;;5040895;28;20204;-88
2022/12/30 01:24:25;;;;;;;0.70;0.70;;;7.10;99.90;;;;;;5041503;28;20204;-88
2022/12/30 01:26:51;;;;;;;1.10;0.90;;;7.10;99.90;;;;;;5057963;28;20239;-88
2022/12/30 01:29:28;;;;;;;1.40;0.90;;;7.10;99.90;;;;;;5057745;28;20228;-88
2022/12/30 01:31:57;;;;;;;1.63;0.90;;;7.00;99.90;;;;;;5041912;28;20193;-88
2022/12/30 01:34:24;;;;;;;0.80;0.67;;;7.00;99.90;;;;;;5058055;28;20204;-88
2022/12/30 01:36:51;;;;;;;0.80;0.80;;;7.00;99.90;;;;;;5062054;28;20180;-88
2022/12/30 01:39:17;;;;;;;1.33;0.60;;;7.00;99.90;;;;;;5061478;28;20205;-88
2022/12/30 01:41:43;;;;;;;1.57;0.70;;;6.90;99.90;;;;;;5061297;28;20201;-88
2022/12/30 01:44:46;;;;;;;1.90;0.70;;;6.90;99.90;;;;;;5061674;28;20193;-88
2022/12/30 01:47:34;;;;;;;0.50;0.50;;;6.90;99.90;;;;;;5070648;28;20213;-88
2022/12/30 01:50:21;;;;;;;0.60;0.50;;;6.90;99.90;;;;;;5040501;28;20211;-88
2022/12/30 01:53:05;;;;;;;1.27;0.50;;;6.90;99.90;;;;;;5058141;28;20202;-88
2022/12/30 01:55:43;;;;;;;1.07;0.70;;;6.90;99.90;;;;;;5057510;28;20178;-88
2022/12/30 01:58:17;;;;;;;0.87;0.70;;;6.80;99.90;;;;;;5057431;28;20205;-88
2022/12/30 02:00:43;;;;;;;0.80;0.57;;;6.80;99.90;;;;;;5056328;28;20185;-88
2022/12/30 02:03:10;;;;;;;1.13;0.50;;;6.80;99.90;;;;;;5040734;28;20198;-88
2022/12/30 02:05:40;;;;;;;0.80;0.43;;;6.80;99.90;;;;;;5040796;28;20268;-88
2022/12/30 02:08:15;;;;;;;1.70;0.53;;;6.80;99.90;;;;;;5064971;28;20177;-88
2022/12/30 02:10:45;;;;;;;0.70;0.40;;;6.80;99.90;;;;;;5046262;28;20185;-89
2022/12/30 02:13:13;;;;;;;0.47;0.47;;;6.70;99.90;;;;;;5056717;28;20195;-89
2022/12/30 02:16:04;;;;;;;0.57;0.57;;;6.70;99.90;;;;;;5057406;28;20189;-88
2022/12/30 02:18:48;;;;;;;0.80;0.40;;;6.70;99.90;;;;;;5057461;28;20185;-88
2022/12/30 02:21:37;;;;;;;0.83;0.60;;;6.70;99.90;;;;;;5056871;28;20222;-88
2022/12/30 02:24:32;;;;;;;0.40;0.40;;;6.70;99.90;;;;;;5040810;28;20183;-88
2022/12/30 02:27:26;;;;;;;0.50;0.50;;;6.60;99.90;;;;;;5052351;22;20238;-43
2022/12/30 02:30:05;;;;;;;0.50;0.50;;;6.60;99.90;;;;;;5025175;28;20265;-45
2022/12/30 02:32:52;;;;;;;1.03;0.57;;;6.60;99.90;;;;;;5010953;28;20182;-43
2022/12/30 02:35:39;;;;;;;0.67;0.60;;;6.60;99.90;;;;;;5029032;28;20179;-43
2022/12/30 02:38:37;;;;;;;1.07;0.60;;;6.50;99.90;;;;;;5031103;28;20181;-43
2022/12/30 02:47:01;;;;;;;0.93;0.60;;;6.40;99.90;;;;;;5030544;28;20209;-44
2022/12/30 02:49:28;;;;;;;1.10;0.90;;;6.30;99.90;;;;;;5029565;28;20193;-43
2022/12/30 02:52:14;;;;;;;0.60;0.50;;;6.30;99.90;;;;;;5029459;28;20251;-44
2022/12/30 02:54:41;;;;;;;1.40;0.67;;;6.20;99.90;;;;;;5013145;28;20198;-43
2022/12/30 02:57:27;;;;;;;1.57;0.60;;;6.20;99.90;;;;;;5035845;28;20206;-41
2022/12/30 03:06:24;;;;;;;1.73;0.80;;;6.10;99.90;;;;;;5029906;28;20216;-39
2022/12/30 03:09:30;;;;;;;1.53;1.00;;;6.10;99.90;;;;;;5019997;28;20201;-41
2022/12/30 03:12:33;;;;;;;1.17;0.70;;;6.00;99.90;;;;;;5027243;28;20273;-39
2022/12/30 03:15:08;;;;;;;2.40;1.17;;;5.80;99.90;;;;;;5029463;28;20217;-40
2022/12/30 03:17:39;;;;;;;0.80;0.80;;;5.70;99.90;;;;;;5029290;28;20209;-42
2022/12/30 03:20:13;;;;;;;1.77;0.70;;;5.60;99.90;;;;;;5028759;28;20220;-42
2022/12/30 03:28:14;;;;;;;2.07;0.73;;;5.40;99.90;;;;;;5049831;28;20189;-42
2022/12/30 03:30:46;;;;;;;0.57;0.50;;;5.40;99.90;;;;;;5043513;28;20174;-41
2022/12/30 03:33:12;;;;;;;0.70;0.57;;;5.40;99.90;;;;;;5029200;28;20188;-40
2022/12/30 03:35:56;;;;;;;0.50;0.50;;;5.40;99.90;;;;;;5028809;28;20221;-41
2022/12/30 03:38:29;;;;;;;0.60;0.60;;;5.30;99.90;;;;;;5028946;28;20190;-43
2022/12/30 03:40:58;;;;;;;0.90;0.50;;;5.10;99.90;;;;;;5029248;28;20177;-42
2022/12/30 03:43:27;;;;;;;1.70;0.60;;;5.00;99.90;;;;;;5032326;28;20287;-39
2022/12/30 03:45:53;;;;;;;0.57;0.43;;;5.00;99.90;;;;;;5032115;28;20190;-40
2022/12/30 03:48:19;;;;;;;0.50;0.50;;;5.00;99.90;;;;;;5033138;28;20179;-40
2022/12/30 03:50:45;;;;;;;0.40;0.40;;;5.00;99.90;;;;;;5033627;28;20174;-42
2022/12/30 03:53:11;;;;;;;0.60;0.60;;;5.00;99.90;;;;;;5033977;28;20181;-41
2022/12/30 03:55:36;;;;;;;0.93;0.50;;;5.00;99.90;;;;;;5032518;28;20190;-42
2022/12/30 03:58:02;;;;;;;1.00;0.50;;;5.10;99.90;;;;;;5057251;28;20192;-42
2022/12/30 04:00:28;;;;;;;1.30;1.20;;;5.10;99.90;;;;;;5049687;28;20203;-41
2022/12/30 04:02:54;;;;;;;1.27;1.00;;;5.20;99.90;;;;;;5033675;28;20180;-40
2022/12/30 04:05:20;;;;;;;0.60;0.60;;;5.20;99.90;;;;;;5032314;28;20221;-39
2022/12/30 04:07:45;;;;;;;1.43;0.50;;;5.20;99.90;;;;;;5032311;28;20175;-42
2022/12/30 04:10:11;;;;;;;0.60;0.50;;;5.10;99.90;;;;;;5032792;28;20182;-42
2022/12/30 04:12:37;;;;;;;1.23;0.57;;;5.10;99.90;;;;;;5032444;28;20185;-42
2022/12/30 04:15:04;;;;;;;0.50;0.50;;;5.00;99.90;;;;;;5032026;28;20245;-41
2022/12/30 04:17:29;;;;;;;0.50;0.50;;;5.00;99.90;;;;;;5031940;28;20207;-42
2022/12/30 04:19:55;;;;;;;0.60;0.43;;;5.00;99.90;;;;;;5015529;28;20336;-42
2022/12/30 04:22:21;;;;;;;0.60;0.60;;;5.00;99.90;;;;;;5015460;28;20271;-42
2022/12/30 04:24:47;;;;;;;1.00;0.70;;;4.90;99.90;;;;;;5032236;28;20176;-42
2022/12/30 04:27:12;;;;;;;1.23;0.90;;;4.90;99.90;;;;;;5040177;28;20683;-41
2022/12/30 04:29:38;;;;;;;1.67;1.20;;;4.80;99.90;;;;;;5044975;28;20180;-41
2022/12/30 04:32:04;;;;;;;1.30;1.00;;;4.80;99.90;;;;;;5019368;28;20208;-41
2022/12/30 04:34:30;;;;;;;1.90;1.30;;;4.80;99.90;;;;;;5031837;28;20188;-41
2022/12/30 04:36:56;;;;;;;1.60;1.27;;;4.70;99.90;;;;;;5031486;28;20220;-41
2022/12/30 04:39:21;;;;;;;0.90;0.80;;;4.70;99.90;;;;;;5033018;28;20203;-41
2022/12/30 04:41:47;;;;;;;0.90;0.90;;;4.70;99.90;;;;;;5031531;28;20211;-41
2022/12/30 04:44:13;;;;;;;1.10;1.00;;;4.70;99.90;;;;;;5017557;28;20191;-41
2022/12/30 04:46:39;;;;;;;1.57;0.90;;;4.70;99.90;;;;;;5011781;28;20198;-41
2022/12/30 04:49:05;;;;;;;1.40;0.90;;;4.70;99.90;;;;;;5011777;28;20189;-40
2022/12/30 04:51:31;;;;;;;1.10;0.90;;;4.80;99.90;;;;;;5019641;28;20177;-43
2022/12/30 04:53:57;;;;;;;1.77;1.10;;;4.70;99.90;;;;;;5031398;28;20189;-43
2022/12/30 04:56:22;;;;;;;1.63;1.00;;;4.70;99.90;;;;;;5047722;28;20212;-44
2022/12/30 04:58:48;;;;;;;1.03;0.90;;;4.60;99.90;;;;;;5033627;28;20204;-42
2022/12/30 05:01:14;;;;;;;1.87;1.30;;;4.50;99.90;;;;;;5030892;28;20179;-42
2022/12/30 05:03:40;;;;;;;3.40;1.20;;;4.40;99.90;;;;;;5031443;28;20179;-42
2022/12/30 05:06:06;;;;;;;2.37;1.30;;;4.40;99.90;;;;;;5031272;28;20253;-41
2022/12/30 05:08:31;;;;;;;1.30;1.10;;;4.30;99.90;;;;;;5031062;28;20251;-42
2022/12/30 05:10:57;;;;;;;1.00;0.90;;;4.20;99.90;;;;;;5031873;28;20188;-43
2022/12/30 05:13:23;;;;;;;1.90;1.33;;;4.20;99.90;;;;;;5047546;28;20203;-42
2022/12/30 05:15:49;;;;;;;1.50;1.10;;;4.20;99.90;;;;;;5031013;28;20211;-43
2022/12/30 05:18:14;;;;;;;2.23;1.60;;;4.10;99.90;;;;;;5031172;28;20181;-42
2022/12/30 05:20:40;;;;;;;3.27;2.77;;;4.10;99.90;;;;;;5030432;28;20292;-40
2022/12/30 05:26:13;;;;;;;2.07;1.60;;;4.00;99.90;;;;;;5032400;28;20648;-42
2022/12/30 05:28:36;;;;;;;1.70;1.07;;;4.00;99.90;;;;;;5057243;28;20187;-42
2022/12/30 05:31:02;;;;;;;0.80;0.80;;;4.00;99.90;;;;;;5030633;28;20205;-42
2022/12/30 05:33:27;;;;;;;2.13;1.50;;;4.00;99.90;;;;;;5030662;28;20221;-42
2022/12/30 05:35:53;;;;;;;1.93;1.60;;;3.90;99.90;;;;;;5030637;28;20208;-41
2022/12/30 05:38:19;;;;;;;1.20;0.97;;;3.80;99.90;;;;;;5032195;28;20170;-42
2022/12/30 05:40:45;;;;;;;1.63;0.93;;;3.90;99.90;;;;;;5029929;28;20267;-41
2022/12/30 05:43:10;;;;;;;3.60;1.00;;;3.90;99.90;;;;;;5032127;28;20206;-41
2022/12/30 05:45:36;;;;;;;1.07;1.03;;;3.90;99.90;;;;;;5030299;28;20664;-42
2022/12/30 05:48:02;;;;;;;2.60;2.40;;;3.90;99.90;;;;;;5014101;28;20202;-42
2022/12/30 05:50:28;;;;;;;2.33;1.43;;;3.90;99.90;;;;;;5013750;28;20259;-42
2022/12/30 05:52:54;;;;;;;1.13;1.03;;;4.00;99.90;;;;;;5031610;28;20182;-42
2022/12/30 05:55:20;;;;;;;1.27;1.10;;;3.90;99.90;;;;;;5046596;28;20184;-42
2022/12/30 05:57:46;;;;;;;2.10;1.10;;;3.90;99.90;;;;;;5038490;28;20201;-40
2022/12/30 06:00:12;;;;;;;1.13;1.00;;;3.80;99.90;;;;;;5032608;28;20202;-40
2022/12/30 06:02:38;;;;;;;1.90;0.97;;;3.80;99.90;;;;;;5031359;28;20182;-42
2022/12/30 06:05:04;;;;;;;1.43;1.00;;;3.60;99.90;;;;;;5016401;28;20183;-42
2022/12/30 06:07:30;;;;;;;2.07;1.43;;;3.60;99.90;;;;;;5010449;28;20702;-42
2022/12/30 06:09:56;;;;;;;2.43;1.40;;;3.50;99.90;;;;;;5007539;28;20269;-42
2022/12/30 06:12:22;;;;;;;2.53;1.13;;;3.60;99.90;;;;;;5007234;28;20178;-42
2022/12/30 06:14:48;;;;;;;1.17;1.00;;;3.50;99.90;;;;;;5021269;28;20179;-42
2022/12/30 06:17:13;;;;;;;3.47;1.33;;;3.50;99.90;;;;;;5036429;28;20325;-42
2022/12/30 06:19:39;;;;;;;1.17;1.07;;;3.40;99.90;;;;;;5059624;28;20203;-40
2022/12/30 06:22:05;;;;;;;1.37;1.27;;;3.40;99.90;;;;;;5002470;28;20186;-39
2022/12/30 06:24:30;;;;;;;1.43;1.33;;;3.30;99.90;;;;;;5022188;28;20170;-42
2022/12/30 06:26:56;;;;;;;1.30;1.20;;;3.20;99.90;;;;;;5027657;28;20363;-42
2022/12/30 06:29:22;;;;;;;1.33;1.23;;;3.20;99.90;;;;;;5037311;28;20194;-42
2022/12/30 06:31:48;;;;;;;1.90;1.70;;;3.10;99.90;;;;;;5019757;28;20237;-41
2022/12/30 06:34:13;;;;;;;1.93;1.70;;;3.20;99.90;;;;;;5019443;28;20201;-42
2022/12/30 06:36:39;;;;;;;2.60;1.50;;;3.20;99.90;;;;;;5051124;28;20202;-40
2022/12/30 06:39:05;;;;;;;2.40;2.00;;;3.10;99.90;;;;;;5016278;28;20191;-41
2022/12/30 06:41:31;;;;;;;2.33;1.90;;;3.20;99.90;;;;;;5055615;28;20178;-42
2022/12/30 06:43:56;;;;;;;1.73;1.50;;;3.10;99.90;;;;;;5060318;28;20262;-40
2022/12/30 06:46:22;;;;;;;2.20;1.27;;;3.20;99.90;;;;;;5039601;28;20251;-40
2022/12/30 06:48:48;;;;;;;3.27;1.67;;;3.20;99.90;;;;;;5036513;28;20273;-42
2022/12/30 06:51:14;;;;;;;2.43;1.77;;;3.20;99.90;;;;;;5041193;28;20269;-42
2022/12/30 06:53:41;;;;;;;2.60;1.90;;;3.20;99.90;;;;;;5059863;28;20228;-40
2022/12/30 06:56:07;;;;;;;1.70;1.60;;;3.20;99.90;;;;;;5034994;28;20221;-43
2022/12/30 06:58:33;;;;;;;2.10;1.37;;;3.10;99.90;;;;;;5030677;28;20236;-42
2022/12/30 07:00:59;;;;;;;1.93;1.70;;;2.90;99.90;;;;;;5036302;28;20182;-40
2022/12/30 07:03:25;;;;;;;1.40;1.30;;;2.90;99.90;;;;;;5029199;28;20166;-42
2022/12/30 07:05:51;;;;;;;1.67;1.37;;;2.80;99.90;;;;;;5029864;28;20240;-41
2022/12/30 07:08:17;;;;;;;2.20;1.50;;;2.80;99.90;;;;;;5038137;28;20240;-42
2022/12/30 07:10:43;;;;;;;1.40;1.30;;;2.90;99.90;;;;;;5020443;28;20196;-42
2022/12/30 07:13:11;;;;;;;3.37;1.73;;;2.90;99.90;;;;;;5035630;28;20183;-41
2022/12/30 07:15:37;;;;;;;1.97;1.67;;;3.00;99.90;;;;;;5035229;28;20288;-42
2022/12/30 07:18:03;;;;;;;1.50;1.40;;;3.00;99.90;;;;;;5042479;28;20194;-41
2022/12/30 07:20:28;;;;;;;3.27;1.67;;;3.10;99.90;;;;;;5039809;28;20210;-40
2022/12/30 07:22:54;;;;;;;1.50;1.40;;;3.00;99.90;;;;;;5032379;28;20185;-42
2022/12/30 07:25:20;;;;;;;1.90;1.30;;;3.00;99.90;;;;;;5035027;28;20178;-42
2022/12/30 07:27:46;;;;;;;2.23;1.60;;;3.00;99.90;;;;;;5044874;28;20277;-40
2022/12/30 07:30:13;;;;;;;1.90;1.60;;;3.10;99.90;;;;;;5036900;28;20222;-41
2022/12/30 07:32:39;;;;;;;2.20;1.87;;;3.10;99.90;;;;;;5055940;28;20186;-41
2022/12/30 07:35:08;;;;;;;2.57;2.27;;;3.10;99.90;;;;;;5049357;28;20230;-42
2022/12/30 07:37:35;;;;;;;3.43;2.40;;;3.10;99.90;;;;;;5032983;28;20202;-42
2022/12/30 07:40:02;;;;;;;2.37;1.90;;;3.10;99.90;;;;;;5034152;28;20214;-41
2022/12/30 07:42:28;;;;;;;2.33;2.07;;;3.10;99.90;;;;;;5049189;28;20197;-42
2022/12/30 07:44:54;;;;;;;5.80;2.10;;;3.10;99.90;;;;;;5005596;28;20183;-42
2022/12/30 07:47:20;;;;;;;6.30;3.83;;;3.10;99.90;;;;;;5028655;28;20202;-42
2022/12/30 07:49:45;;;;;;;6.77;2.97;;;3.10;99.90;;;;;;5024748;28;20229;-42
2022/12/30 07:52:11;;;;;;;4.90;3.73;;;3.10;99.90;;;;;;5028349;28;20179;-40
2022/12/30 07:54:37;;;;;;;5.17;4.10;;;3.10;99.90;;;;;;5013233;28;20184;-42
2022/12/30 07:57:03;;;;;;;4.03;2.70;;;3.10;99.90;;;;;;5032157;28;20217;-40
2022/12/30 07:59:28;;;;;;;1.80;1.63;;;3.00;99.90;;;;;;5043882;28;20241;-41
2022/12/30 08:01:54;;;;;;;11.10;4.67;;;3.00;99.90;;;;;;5042830;28;20179;-41
2022/12/30 08:04:20;;;;;;;14.57;6.47;;;2.90;99.90;;;;;;5033855;28;20187;-39
2022/12/30 08:06:46;;;;;;;3.67;2.30;;;2.90;99.90;;;;;;5031996;28;20205;-41
2022/12/30 08:09:11;;;;;;;2.93;2.20;;;2.90;99.90;;;;;;5031971;28;20189;-42
2022/12/30 08:11:38;;;;;;;3.30;2.20;;;2.80;99.90;;;;;;5032768;28;20181;-42
2022/12/30 08:14:03;;;;;;;2.83;2.40;;;2.80;99.90;;;;;;5018351;28;20228;-42
2022/12/30 08:16:29;;;;;;;3.60;2.27;;;2.80;99.90;;;;;;5027936;28;20199;-41
2022/12/30 08:18:55;;;;;;;3.93;3.53;;;2.90;99.90;;;;;;5056802;28;20285;-39
2022/12/30 08:21:21;;;;;;;3.23;2.77;;;2.90;99.90;;;;;;5031434;28;20198;-42
2022/12/30 08:23:47;;;;;;;2.87;2.53;;;3.00;99.90;;;;;;5044979;28;20186;-42
2022/12/30 08:26:19;;;;;;;3.33;3.00;;;3.00;99.90;;;;;;5044471;28;20215;-41
2022/12/30 08:28:45;;;;;;;4.07;2.93;;;3.10;99.90;;;;;;5028308;28;20179;-41
2022/12/30 08:31:17;;;;;;;4.37;3.30;;;3.10;99.90;;;;;;5019522;28;20174;-41
2022/12/30 08:33:44;;;;;;;5.17;3.60;;;3.00;99.90;;;;;;5046950;28;20232;-41
2022/12/30 08:36:12;;;;;;;4.80;3.63;;;3.10;99.90;;;;;;5030763;28;20260;-41
2022/12/30 08:38:40;;;;;;;4.30;3.50;;;3.10;99.90;;;;;;5028826;28;20266;-42
2022/12/30 08:41:15;;;;;;;6.43;3.90;;;3.20;99.90;;;;;;5030260;28;20201;-41
2022/12/30 08:43:42;;;;;;;4.10;2.97;;;3.40;99.90;;;;;;5035248;28;20190;-42
2022/12/30 08:46:08;;;;;;;4.50;3.60;;;3.50;99.90;;;;;;5033805;28;20206;-42
2022/12/30 08:48:34;;;;;;;5.50;4.37;;;3.70;99.90;;;;;;5032142;28;20175;-42
2022/12/30 08:51:00;;;;;;;6.27;4.47;;;3.70;99.90;;;;;;5034335;28;20189;-43
2022/12/30 08:53:27;;;;;;;8.17;6.60;;;3.80;99.90;;;;;;5044925;28;20198;-42
2022/12/30 08:56:03;;;;;;;5.93;4.50;;;3.90;99.90;;;;;;5030464;28;20226;-43
2022/12/30 08:58:30;;;;;;;5.00;3.70;;;3.90;99.90;;;;;;5031907;28;20187;-43
2022/12/30 09:00:56;;;;;;;7.60;3.50;;;4.00;99.90;;;;;;5030824;28;20217;-42
2022/12/30 09:03:22;;;;;;;5.10;3.50;;;4.10;99.90;;;;;;5029254;28;20182;-42
2022/12/30 09:05:54;;;;;;;4.87;3.83;;;4.10;99.90;;;;;;5032000;28;20199;-41
2022/12/30 09:08:21;;;;;;;3.90;3.60;;;4.20;99.90;;;;;;5031255;28;20315;-42
2022/12/30 09:11:02;;;;;;;3.77;3.27;;;4.20;99.90;;;;;;5030982;28;20181;-43
2022/12/30 09:13:29;;;;;;;5.63;4.53;;;4.30;99.90;;;;;;5030454;28;20176;-43
2022/12/30 09:15:57;;;;;;;5.07;4.00;;;4.40;99.90;;;;;;5030419;28;20203;-43
2022/12/30 09:18:23;;;;;;;5.27;4.33;;;4.50;99.90;;;;;;5032623;28;20210;-42
2022/12/30 09:20:50;;;;;;;4.30;3.77;;;4.50;99.90;;;;;;5030129;28;20237;-42
2022/12/30 09:23:16;;;;;;;5.17;4.30;;;4.70;99.90;;;;;;5045107;28;20183;-43
2022/12/30 09:25:42;;;;;;;5.27;4.70;;;4.80;99.90;;;;;;5028453;28;20196;-43
2022/12/30 09:28:09;;;;;;;6.17;4.83;;;4.80;99.90;;;;;;5036435;28;20174;-42
2022/12/30 09:30:36;;;;;;;4.23;3.80;;;4.90;99.90;;;;;;5048967;28;20180;-42
2022/12/30 09:33:02;;;;;;;3.60;3.10;;;5.00;99.90;;;;;;5031769;28;20186;-42
2022/12/30 09:35:28;;;;;;;5.07;3.60;;;5.10;99.90;;;;;;5027975;28;20178;-43
2022/12/30 09:37:54;;;;;;;6.33;4.67;;;5.20;99.90;;;;;;5028688;28;20207;-42
2022/12/30 09:40:31;;;;;;;4.50;3.67;;;5.20;99.90;;;;;;5044518;28;20209;-43
2022/12/30 09:43:16;;;;;;;4.53;3.90;;;5.30;99.90;;;;;;5030793;28;20269;-42
2022/12/30 09:45:57;;;;;;;3.37;3.00;;;5.30;99.90;;;;;;5030966;28;20191;-43
2022/12/30 09:48:38;;;;;;;4.40;3.90;;;5.30;99.90;;;;;;5048135;28;20223;-42
2022/12/30 09:51:09;;;;;;;3.67;3.07;;;5.30;99.90;;;;;;5032184;28;20665;-43
2022/12/30 09:54:02;;;;;;;3.50;3.20;;;5.40;99.90;;;;;;5029012;28;20172;-43
2022/12/30 09:56:39;;;;;;;3.97;3.40;;;5.40;99.90;;;;;;5019751;28;20218;-42
2022/12/30 09:59:19;;;;;;;7.17;6.27;;;5.50;99.90;;;;;;5081110;22;20223;-40
2022/12/30 10:01:49;;;;;;;7.17;6.20;;;5.60;99.90;;;;;;5058647;28;20180;-36
2022/12/30 10:04:17;;;;;;;5.73;4.50;;;5.70;99.90;;;;;;5071554;28;20181;-35
2022/12/30 10:06:52;;;;;;;5.50;4.73;;;5.80;99.90;;;;;;5071586;28;20247;-36
2022/12/30 10:09:55;;;;;;;4.40;4.00;;;5.90;99.90;;;;;;5040386;28;20216;-36
2022/12/30 10:12:45;;;;;;;3.27;2.70;;;6.10;99.90;;;;;;5057850;28;20199;-35
2022/12/30 10:15:33;;;;;;;3.83;2.47;;;6.20;99.90;;;;;;5033988;28;20163;-36
2022/12/30 10:18:07;;;;;;;2.70;2.13;;;6.10;99.90;;;;;;5053480;28;20205;-36
2022/12/30 10:20:47;;;;;;;2.60;2.13;;;6.20;99.90;;;;;;5052907;28;20289;-37
2022/12/30 10:23:15;;;;;;;2.97;1.93;;;6.30;99.90;;;;;;5031690;28;20185;-36
2022/12/30 10:26:18;;;;;;;2.30;2.10;;;6.40;99.90;;;;;;5033461;28;20175;-36
2022/12/30 10:28:51;;;;;;;3.50;2.03;;;6.50;99.90;;;;;;5057021;28;20308;-36
2022/12/30 10:31:21;;;;;;;5.20;4.17;;;6.60;99.90;;;;;;5047984;28;20177;-37
2022/12/30 10:33:53;;;;;;;4.87;3.83;;;6.60;99.90;;;;;;5048335;28;20184;-37
2022/12/30 10:36:31;;;;;;;5.10;3.27;;;6.70;99.90;;;;;;5048601;28;20189;-36
2022/12/30 10:39:14;;;;;;;3.10;2.50;;;6.80;99.90;;;;;;5048374;28;20217;-36
2022/12/30 10:41:49;;;;;;;4.37;2.70;;;6.80;99.90;;;;;;5050738;28;20199;-36
2022/12/30 10:44:33;;;;;;;2.70;2.40;;;6.90;99.90;;;;;;5033080;28;20209;-36
2022/12/30 10:47:10;;;;;;;2.90;2.30;;;7.00;99.90;;;;;;5050790;28;20170;-37
2022/12/30 10:50:06;;;;;;;4.37;3.90;;;7.10;99.90;;;;;;5032603;28;20197;-36
2022/12/30 10:52:32;;;;;;;3.80;2.93;;;7.10;99.90;;;;;;5027372;28;20201;-36
2022/12/30 10:54:58;;;;;;;3.50;3.13;;;7.10;99.90;;;;;;5050477;28;20185;-39
2022/12/30 10:57:34;;;;;;;4.63;2.87;;;7.20;99.90;;;;;;5057428;28;20192;-36
2022/12/30 11:00:03;;;;;;;2.83;2.50;;;7.20;99.90;;;;;;5063527;28;20284;-36
2022/12/30 11:02:37;;;;;;;3.67;2.50;;;7.20;99.90;;;;;;5069524;28;20201;-37
2022/12/30 11:05:29;;;;;;;2.63;2.27;;;7.20;99.90;;;;;;5069439;28;20180;-36
2022/12/30 11:07:56;;;;;;;2.40;2.20;;;7.30;99.90;;;;;;5070517;28;20290;-38
2022/12/30 11:10:22;;;;;;;2.40;2.00;;;7.40;99.90;;;;;;5070430;28;20194;-35
2022/12/30 11:15:59;;;;;;;3.40;2.40;;;7.50;99.90;;;;;;5070844;28;20191;-36
2022/12/30 11:18:29;;;;;;;5.57;2.73;;;7.60;99.90;;;;;;5068973;28;20208;-37
2022/12/30 11:20:57;;;;;;;3.10;2.50;;;7.60;99.90;;;;;;5070672;28;20213;-36
2022/12/30 11:23:35;;;;;;;3.90;2.77;;;7.70;99.90;;;;;;5070884;28;20220;-38
2022/12/30 11:26:05;;;;;;;3.30;2.40;;;7.80;99.90;;;;;;5067052;28;20173;-36
2022/12/30 11:28:59;;;;;;;2.90;2.13;;;7.80;99.90;;;;;;5060174;28;20286;-37
2022/12/30 11:31:53;;;;;;;3.97;2.60;;;7.80;99.90;;;;;;5066181;28;20197;-36
2022/12/30 11:34:27;;;;;;;2.63;2.43;;;7.80;99.90;;;;;;5049872;28;20687;-35
2022/12/30 11:36:53;;;;;;;3.13;2.50;;;7.90;99.90;;;;;;5069237;28;20180;-37
2022/12/30 11:39:32;;;;;;;3.43;2.63;;;7.90;99.90;;;;;;5069876;28;20217;-36
2022/12/30 11:42:01;;;;;;;4.40;2.60;;;7.90;99.90;;;;;;5069074;28;20190;-38
2022/12/30 11:44:31;;;;;;;3.77;3.00;;;7.90;99.90;;;;;;5070183;28;20181;-38
2022/12/30 11:47:15;;;;;;;13.53;9.20;;;7.90;99.90;;;;;;5070533;28;20173;-38
2022/12/30 11:49:53;;;;;;;9.00;7.30;;;8.00;99.90;;;;;;5068549;28;20232;-38
2022/12/30 11:52:25;;;;;;;5.33;4.40;;;8.00;99.90;;;;;;5070405;28;20191;-39
2022/12/30 11:54:55;;;;;;;5.70;4.53;;;8.00;99.90;;;;;;5070286;28;20211;-39
2022/12/30 11:57:30;;;;;;;6.33;4.53;;;8.00;99.90;;;;;;5063802;28;20218;-38
2022/12/30 12:00:03;;;;;;;5.37;4.87;;;8.00;99.90;;;;;;5053106;28;20682;-38
2022/12/30 12:02:40;;;;;;;7.97;5.83;;;8.00;99.90;;;;;;5051123;28;20178;-41
2022/12/30 12:05:39;;;;;;;8.53;6.10;;;8.00;99.90;;;;;;5051529;28;20185;-38
2022/12/30 12:08:20;;;;;;;5.67;4.60;;;8.00;99.90;;;;;;5052527;28;20198;-41
2022/12/30 12:11:03;;;;;;;5.20;4.40;;;8.00;99.90;;;;;;5053098;28;20722;-39
2022/12/30 12:13:55;;;;;;;5.73;4.00;;;7.90;99.90;;;;;;5052157;28;20228;-40
2022/12/30 12:16:52;;;;;;;4.40;3.90;;;7.90;99.90;;;;;;5053753;28;20185;-38
2022/12/30 12:19:44;;;;;;;9.13;6.63;;;7.90;99.90;;;;;;5052025;28;20206;-37
2022/12/30 12:22:22;;;;;;;11.90;8.60;;;8.00;99.90;;;;;;5052224;28;20186;-38
2022/12/30 12:24:57;;;;;;;5.67;4.53;;;8.00;99.90;;;;;;5053589;28;20182;-38
2022/12/30 12:27:25;;;;;;;5.27;3.60;;;8.00;99.90;;;;;;5060103;28;20185;-38
2022/12/30 12:29:55;;;;;;;3.47;3.17;;;8.00;99.90;;;;;;5066081;28;20181;-39
2022/12/30 12:32:51;;;;;;;5.60;3.67;;;8.00;99.90;;;;;;5055307;28;20189;-38
2022/12/30 12:35:54;;;;;;;5.77;4.43;;;8.00;99.90;;;;;;5055505;28;20177;-39
2022/12/30 12:38:42;;;;;;;7.73;4.77;;;8.00;99.90;;;;;;5071784;28;20338;-42
2022/12/30 12:41:14;;;;;;;5.33;4.33;;;8.00;99.90;;;;;;5071824;28;20209;-39
2022/12/30 12:43:46;;;;;;;6.13;4.00;;;7.90;99.90;;;;;;5055056;28;20199;-36
2022/12/30 12:46:15;;;;;;;5.40;4.17;;;8.00;99.90;;;;;;5072000;28;20252;-36
2022/12/30 12:49:15;;;;;;;5.30;4.37;;;8.00;99.90;;;;;;5071500;28;20281;-36
2022/12/30 12:51:59;;;;;;;5.20;4.10;;;8.00;99.90;;;;;;5073012;28;20185;-36
2022/12/30 12:54:55;;;;;;;4.97;4.47;;;8.10;99.90;;;;;;5073131;28;20184;-37
2022/12/30 12:57:27;;;;;;;4.40;3.80;;;8.10;99.90;;;;;;5066504;28;20193;-36
2022/12/30 12:59:53;;;;;;;6.33;4.27;;;8.10;99.90;;;;;;5064244;28;20356;-36
2022/12/30 13:02:28;;;;;;;4.07;3.67;;;8.10;99.90;;;;;;5054741;28;20236;-36
2022/12/30 13:05:33;;;;;;;4.00;3.57;;;8.20;99.90;;;;;;5071113;28;20192;-36
2022/12/30 13:08:24;;;;;;;4.00;3.60;;;8.20;99.90;;;;;;5071439;28;20201;-36
2022/12/30 13:11:06;;;;;;;3.73;3.27;;;8.30;99.90;;;;;;5071379;28;20187;-37
2022/12/30 13:13:47;;;;;;;7.40;5.23;;;8.30;99.90;;;;;;5087804;28;20268;-37
2022/12/30 13:16:38;;;;;;;7.87;6.63;;;8.30;99.90;;;;;;5073013;28;20169;-39
2022/12/30 13:19:07;;;;;;;5.47;4.30;;;8.40;99.90;;;;;;5070911;28;20197;-36
2022/12/30 13:21:33;;;;;;;3.80;3.40;;;8.40;99.90;;;;;;5072441;28;20182;-36
2022/12/30 13:24:05;;;;;;;7.57;5.50;;;8.40;99.90;;;;;;5070897;28;20200;-37
2022/12/30 13:26:33;;;;;;;7.20;5.20;;;8.30;99.90;;;;;;5066372;28;20224;-37
2022/12/30 13:29:02;;;;;;;7.20;5.20;;;8.30;99.90;;;;;;5063628;28;20221;-37
2022/12/30 13:31:38;;;;;;;6.60;4.50;;;8.30;99.90;;;;;;5071124;28;20664;-37
2022/12/30 13:34:19;;;;;;;4.30;3.83;;;8.30;99.90;;;;;;5054118;28;20177;-36
2022/12/30 13:37:08;;;;;;;7.53;5.07;;;8.20;99.90;;;;;;5072038;28;20169;-36
2022/12/30 13:39:57;;;;;;;7.97;5.50;;;8.20;99.90;;;;;;5070490;28;20212;-36
2022/12/30 13:42:52;;;;;;;7.63;5.20;;;8.10;99.90;;;;;;5070830;28;20246;-37
2022/12/30 13:45:41;;;;;;;7.10;5.00;;;8.10;99.90;;;;;;5070684;28;20185;-37
2022/12/30 13:48:10;;;;;;;9.47;6.50;;;8.10;99.90;;;;;;5070717;28;20197;-37
2022/12/30 13:50:37;;;;;;;12.17;6.77;;;8.10;99.90;;;;;;5070293;28;20193;-36
2022/12/30 13:53:21;;;;;;;10.37;7.07;;;8.10;99.90;;;;;;5070466;28;20185;-37
2022/12/30 13:55:51;;;;;;;10.13;6.87;;;8.20;99.90;;;;;;5053282;28;20249;-37
2022/12/30 13:58:29;;;;;;;10.67;6.50;;;8.20;99.90;;;;;;5058486;28;20213;-36
2022/12/30 14:01:13;;;;;;;13.37;7.77;;;8.30;99.90;;;;;;5029989;28;20212;-36
2022/12/30 14:03:39;;;;;;;14.73;9.27;;;8.50;99.90;;;;;;5030597;28;20182;-37
2022/12/30 14:06:44;;;;;;;15.90;8.53;;;8.50;99.90;;;;;;5030453;28;20308;-36
2022/12/30 14:09:23;;;;;;;12.63;8.87;;;8.50;99.90;;;;;;5017399;28;20225;-37
2022/12/30 14:12:04;;;;;;;11.20;7.43;;;8.50;99.90;;;;;;5030583;28;20268;-36
2022/12/30 14:14:37;;;;;;;13.77;9.13;;;8.60;99.90;;;;;;5030465;28;20186;-37
2022/12/30 14:17:13;;;;;;;14.47;8.90;;;8.60;99.90;;;;;;5030330;28;20190;-36